createdAt,value
2019-04-26T00:01:57.688Z,99480.45
2019-04-26T00:05:01.373Z,99483.97
2019-04-26T00:08:04.860Z,99477.77
2019-04-26T00:11:27.333Z,99473.44
2019-04-26T00:14:45.899Z,99471.73
2019-04-26T00:17:55.356Z,99463.39
2019-04-26T00:20:58.922Z,99462.39
2019-04-26T00:24:03.348Z,99466.06
2019-04-26T00:27:07.152Z,99463.39
2019-04-26T00:30:12.090Z,99465.73
2019-04-26T00:33:17.215Z,99469.37
2019-04-26T00:36:20.883Z,99468.03
2019-04-26T00:39:25.062Z,99462.70
2019-04-26T00:42:28.733Z,99456.02
2019-04-26T00:45:33.086Z,99456.02
2019-04-26T00:48:36.574Z,99454.88
2019-04-26T00:51:40.081Z,99449.17
2019-04-26T00:54:43.990Z,99449.34
2019-04-26T00:57:47.488Z,99443.67
2019-04-26T01:00:52.104Z,99443.83
2019-04-26T01:03:56.531Z,99446.50
2019-04-26T01:07:00.205Z,99439.01
2019-04-26T01:10:03.651Z,99439.01
2019-04-26T01:13:07.269Z,99432.34
2019-04-26T01:16:10.661Z,99430.63
2019-04-26T01:19:14.279Z,99427.97
2019-04-26T01:22:27.657Z,99424.33
2019-04-26T01:25:45.157Z,99415.95
2019-04-26T01:28:59.316Z,99414.62
2019-04-26T01:32:11.246Z,99407.77
2019-04-26T01:35:15.975Z,99405.09
2019-04-26T01:38:20.806Z,99403.28
2019-04-26T01:41:32.605Z,99405.95
2019-04-26T01:44:50.637Z,99415.63
2019-04-26T01:47:56.003Z,99414.92
2019-04-26T01:50:59.508Z,99412.25
2019-04-26T01:54:03.006Z,99404.25
2019-04-26T01:57:06.413Z,99404.92
2019-04-26T02:00:22.882Z,99403.06
2019-04-26T02:03:28.479Z,99394.24
2019-04-26T02:06:35.172Z,99392.91
2019-04-26T02:09:38.142Z,99392.91
2019-04-26T02:12:42.620Z,99394.72
2019-04-26T02:15:46.169Z,99392.58
2019-04-26T02:18:50.838Z,99386.88
2019-04-26T02:22:00.145Z,99387.23
2019-04-26T02:25:03.565Z,99387.88
2019-04-26T02:28:07.024Z,99393.06
2019-04-26T02:31:11.603Z,99392.20
2019-04-26T02:34:15.776Z,99392.58
2019-04-26T02:37:20.302Z,99397.55
2019-04-26T02:40:23.787Z,99394.55
2019-04-26T02:43:30.230Z,99394.55
2019-04-26T02:46:49.047Z,99385.20
2019-04-26T02:49:55.430Z,99387.88
2019-04-26T02:53:22.519Z,99374.20
2019-04-26T02:56:46.936Z,99376.86
2019-04-26T02:59:50.550Z,99388.52
2019-04-26T03:02:59.332Z,99391.18
2019-04-26T03:06:02.771Z,99385.84
2019-04-26T03:09:06.988Z,99381.84
2019-04-26T03:12:12.323Z,99387.84
2019-04-26T03:15:33.929Z,99384.17
2019-04-26T03:19:01.322Z,99376.50
2019-04-26T03:22:11.732Z,99376.32
2019-04-26T03:25:53.688Z,99377.17
2019-04-26T03:29:23.322Z,99374.17
2019-04-26T03:32:51.514Z,99379.51
2019-04-26T03:36:18.342Z,99384.84
2019-04-26T03:39:32.911Z,99383.14
2019-04-26T03:43:07.254Z,99378.99
2019-04-26T03:46:23.166Z,99368.83
2019-04-26T03:50:05.817Z,99371.29
2019-04-26T03:53:42.573Z,99366.47
2019-04-26T03:56:57.686Z,99363.80
2019-04-26T04:00:25.331Z,99366.47
2019-04-26T04:03:39.690Z,99362.80
2019-04-26T04:06:58.144Z,99365.62
2019-04-26T04:09:53.174Z,99366.11
2019-04-26T04:13:18.185Z,99370.80
2019-04-26T04:16:54.030Z,99363.80
2019-04-26T04:20:28.447Z,99369.95
2019-04-26T04:23:48.658Z,99360.44
2019-04-26T04:27:30.853Z,99363.59
2019-04-26T04:30:45.920Z,99363.44
2019-04-26T04:34:01.138Z,99371.59
2019-04-26T04:37:04.573Z,99365.44
2019-04-26T04:40:36.682Z,99363.59
2019-04-26T04:43:50.898Z,99367.11
2019-04-26T04:47:23.512Z,99370.41
2019-04-26T04:50:52.526Z,99379.75
2019-04-26T04:54:02.592Z,99385.45
2019-04-26T04:57:31.620Z,99386.42
2019-04-26T05:01:22.072Z,99386.79
2019-04-26T05:05:06.145Z,99382.78
2019-04-26T05:08:54.900Z,99386.42
2019-04-26T05:12:23.677Z,99389.09
2019-04-26T05:15:53.278Z,99389.09
2019-04-26T05:19:28.410Z,99387.42
2019-04-26T05:22:58.072Z,99392.77
2019-04-26T05:26:36.664Z,99393.62
2019-04-26T05:29:52.087Z,99399.77
2019-04-26T05:33:07.501Z,99398.59
2019-04-26T05:36:31.393Z,99395.44
2019-04-26T05:40:10.867Z,99391.77
2019-04-26T05:43:27.432Z,99392.77
2019-04-26T05:46:56.368Z,99391.06
2019-04-26T05:50:37.309Z,99394.58
2019-04-26T05:54:14.638Z,99389.09
2019-04-26T05:57:41.107Z,99386.09
2019-04-26T06:01:44.369Z,99391.06
2019-04-26T06:05:22.515Z,99398.10
2019-04-26T06:08:59.867Z,99394.58
2019-04-26T06:12:13.148Z,99398.10
2019-04-26T06:15:36.825Z,99399.07
2019-04-26T06:18:55.329Z,99389.09
2019-04-26T06:22:05.447Z,99402.44
2019-04-26T06:25:29.171Z,99399.92
2019-04-26T06:28:45.800Z,99407.44
2019-04-26T06:31:57.965Z,99423.78
2019-04-26T06:35:12.726Z,99423.09
2019-04-26T06:38:57.843Z,99432.42
2019-04-26T06:42:35.212Z,99438.13
2019-04-26T06:46:11.409Z,99447.10
2019-04-26T06:49:44.339Z,99458.14
2019-04-26T06:52:58.189Z,99463.11
2019-04-26T06:56:12.998Z,99465.78
2019-04-26T06:59:41.182Z,99462.63
2019-04-26T07:03:25.454Z,99462.08
2019-04-26T07:06:35.290Z,99464.11
2019-04-26T07:09:56.035Z,99464.59
2019-04-26T07:13:35.906Z,99462.78
2019-04-26T07:16:53.885Z,99459.11
2019-04-26T07:20:15.555Z,99463.11
2019-04-26T07:24:19.497Z,99452.44
2019-04-26T07:27:40.808Z,99463.11
2019-04-26T07:31:11.044Z,99456.81
2019-04-26T07:34:39.344Z,99448.80
2019-04-26T07:38:06.914Z,99461.14
2019-04-26T07:41:33.503Z,99466.55
2019-04-26T07:45:21.750Z,99465.84
2019-04-26T07:49:25.197Z,99464.81
2019-04-26T07:52:52.797Z,99464.52
2019-04-26T07:56:16.218Z,99455.88
2019-04-26T07:59:55.173Z,99450.17
2019-04-26T08:03:24.367Z,99457.54
2019-04-26T08:06:40.588Z,99457.05
2019-04-26T08:09:59.976Z,99465.21
2019-04-26T08:13:04.568Z,99469.55
2019-04-26T08:16:26.097Z,99476.55
2019-04-26T08:19:30.348Z,99483.23
2019-04-26T08:22:35.561Z,99482.59
2019-04-26T08:25:39.080Z,99494.42
2019-04-26T08:28:42.627Z,99487.08
2019-04-26T08:31:46.158Z,99492.59
2019-04-26T08:34:55.871Z,99495.63
2019-04-26T08:38:07.964Z,99496.97
2019-04-26T08:41:09.885Z,99497.30
2019-04-26T08:44:23.243Z,99492.11
2019-04-26T08:47:40.451Z,99487.33
2019-04-26T08:50:47.045Z,99481.98
2019-04-26T08:53:50.735Z,99490.00
2019-04-26T08:57:02.620Z,99485.63
2019-04-26T09:00:11.052Z,99486.62
2019-04-26T09:03:32.444Z,99482.29
2019-04-26T09:06:41.581Z,99489.15
2019-04-26T09:09:56.673Z,99493.00
2019-04-26T09:12:51.308Z,99492.67
2019-04-26T09:16:20.827Z,99481.98
2019-04-26T09:19:26.096Z,99487.14
2019-04-26T09:22:38.328Z,99488.00
2019-04-26T09:25:58.556Z,99487.33
2019-04-26T09:29:17.819Z,99485.33
2019-04-26T09:32:29.435Z,99475.50
2019-04-26T09:35:33.278Z,99484.32
2019-04-26T09:38:36.801Z,99482.50
2019-04-26T09:41:40.306Z,99477.65
2019-04-26T09:44:59.485Z,99491.21
2019-04-26T09:48:14.128Z,99491.06
2019-04-26T09:51:17.758Z,99486.02
2019-04-26T09:54:21.278Z,99484.39
2019-04-26T09:57:24.741Z,99484.72
2019-04-26T10:00:29.597Z,99486.39
2019-04-26T10:03:34.389Z,99491.76
2019-04-26T10:06:38.157Z,99499.98
2019-04-26T10:09:43.737Z,99497.98
2019-04-26T10:12:54.711Z,99493.16
2019-04-26T10:16:37.723Z,99489.16
2019-04-26T10:19:49.469Z,99479.81
2019-04-26T10:22:53.001Z,99473.62
2019-04-26T10:25:56.522Z,99467.13
2019-04-26T10:29:01.053Z,99462.97
2019-04-26T10:32:04.526Z,99471.52
2019-04-26T10:35:09.066Z,99475.00
2019-04-26T10:38:12.572Z,99476.52
2019-04-26T10:41:16.647Z,99480.89
2019-04-26T10:44:21.222Z,99482.41
2019-04-26T10:47:25.727Z,99477.25
2019-04-26T10:50:33.152Z,99482.61
2019-04-26T10:53:42.069Z,99468.92
2019-04-26T10:56:59.403Z,99464.95
2019-04-26T11:00:05.784Z,99467.62
2019-04-26T11:03:10.287Z,99469.65
2019-04-26T11:06:13.710Z,99473.98
2019-04-26T11:09:18.297Z,99482.84
2019-04-26T11:12:21.882Z,99480.02
2019-04-26T11:15:29.105Z,99473.68
2019-04-26T11:18:31.459Z,99465.66
2019-04-26T11:21:35.146Z,99457.38
2019-04-26T11:24:38.669Z,99457.22
2019-04-26T11:27:44.272Z,99451.34
2019-04-26T11:30:48.039Z,99446.97
2019-04-26T11:34:04.488Z,99444.66
2019-04-26T11:36:57.921Z,99445.99
2019-04-26T11:40:02.332Z,99445.69
2019-04-26T11:43:05.910Z,99436.87
2019-04-26T11:46:09.311Z,99442.70
2019-04-26T11:49:12.718Z,99448.73
2019-04-26T11:52:16.395Z,99448.55
2019-04-26T11:55:20.902Z,99440.07
2019-04-26T11:58:24.350Z,99436.76
2019-04-26T12:01:29.545Z,99436.27
2019-04-26T12:04:53.774Z,99426.41
2019-04-26T12:08:02.335Z,99429.41
2019-04-26T12:11:17.811Z,99426.09
2019-04-26T12:14:20.203Z,99425.08
2019-04-26T12:17:18.143Z,99426.80
2019-04-26T12:20:22.453Z,99420.94
2019-04-26T12:23:27.804Z,99418.11
2019-04-26T12:26:42.336Z,99410.78
2019-04-26T12:29:37.477Z,99416.14
2019-04-26T12:32:41.985Z,99412.30
2019-04-26T12:35:45.485Z,99407.47
2019-04-26T12:38:49.200Z,99408.66
2019-04-26T12:41:52.686Z,99409.83
2019-04-26T12:45:12.295Z,99418.51
2019-04-26T12:48:18.978Z,99421.02
2019-04-26T12:51:22.453Z,99442.94
2019-04-26T12:54:26.973Z,99449.27
2019-04-26T12:57:31.557Z,99447.78
2019-04-26T13:00:37.593Z,99444.95
2019-04-26T13:03:43.029Z,99441.62
2019-04-26T13:06:51.519Z,99442.32
2019-04-26T13:10:12.792Z,99440.66
2019-04-26T13:13:26.471Z,99446.06
2019-04-26T13:16:40.548Z,99441.36
2019-04-26T13:19:45.176Z,99446.39
2019-04-26T13:22:50.213Z,99448.38
2019-04-26T13:25:59.629Z,99450.06
2019-04-26T13:29:01.203Z,99455.91
2019-04-26T13:32:04.711Z,99459.06
2019-04-26T13:35:11.346Z,99460.92
2019-04-26T13:38:17.430Z,99460.41
2019-04-26T13:41:20.953Z,99450.06
2019-04-26T13:44:42.325Z,99451.73
2019-04-26T13:48:03.865Z,99452.39
2019-04-26T13:51:10.020Z,99451.42
2019-04-26T13:54:16.480Z,99461.11
2019-04-26T13:57:19.822Z,99460.78
2019-04-26T14:00:27.151Z,99458.77
2019-04-26T14:03:31.578Z,99460.31
2019-04-26T14:06:35.860Z,99459.47
2019-04-26T14:09:40.391Z,99460.65
2019-04-26T14:12:46.249Z,99458.50
2019-04-26T14:15:51.886Z,99461.17
2019-04-26T14:18:55.556Z,99447.80
2019-04-26T14:22:03.256Z,99455.51
2019-04-26T14:25:11.283Z,99456.49
2019-04-26T14:28:14.713Z,99459.16
2019-04-26T14:31:19.210Z,99467.23
2019-04-26T14:34:24.754Z,99450.33
2019-04-26T14:37:28.305Z,99450.00
2019-04-26T14:40:31.901Z,99451.02
2019-04-26T14:43:41.132Z,99446.66
2019-04-26T14:46:48.607Z,99447.50
2019-04-26T14:49:45.982Z,99452.85
2019-04-26T14:52:49.457Z,99451.52
2019-04-26T14:55:54.634Z,99451.35
2019-04-26T14:59:01.767Z,99451.19
2019-04-26T15:02:34.609Z,99453.19
2019-04-26T15:05:49.556Z,99451.20
2019-04-26T15:08:53.225Z,99437.66
2019-04-26T15:12:00.946Z,99444.51
2019-04-26T15:15:04.205Z,99443.50
2019-04-26T15:18:07.340Z,99450.55
2019-04-26T15:21:10.763Z,99445.84
2019-04-26T15:24:14.273Z,99450.38
2019-04-26T15:27:17.693Z,99476.98
2019-04-26T15:30:22.053Z,99471.95
2019-04-26T15:33:26.588Z,99479.98
2019-04-26T15:36:30.111Z,99478.48
2019-04-26T15:39:58.289Z,99471.95
2019-04-26T15:43:20.097Z,99471.95
2019-04-26T15:46:49.835Z,99475.12
2019-04-26T15:50:03.949Z,99477.63
2019-04-26T15:53:10.555Z,99475.59
2019-04-26T15:56:14.624Z,99479.94
2019-04-26T15:59:18.334Z,99483.63
2019-04-26T16:02:26.013Z,99478.44
2019-04-26T16:05:29.650Z,99488.32
2019-04-26T16:08:33.987Z,99490.64
2019-04-26T16:11:38.095Z,99495.98
2019-04-26T16:14:42.254Z,99498.98
2019-04-26T16:17:45.833Z,99504.00
2019-04-26T16:20:50.230Z,99508.02
2019-04-26T16:23:55.255Z,99511.70
2019-04-26T16:26:59.926Z,99526.09
2019-04-26T16:30:32.566Z,99530.75
2019-04-26T16:33:37.818Z,99542.45
2019-04-26T16:36:42.195Z,99522.55
2019-04-26T16:39:48.655Z,99509.49
2019-04-26T16:42:56.566Z,99505.16
2019-04-26T16:45:57.990Z,99508.64
2019-04-26T16:49:04.342Z,99503.61
2019-04-26T16:52:07.310Z,99500.61
2019-04-26T16:55:18.202Z,99518.83
2019-04-26T16:58:16.355Z,99535.70
2019-04-26T17:01:19.905Z,99546.75
2019-04-26T17:04:30.751Z,99547.40
2019-04-26T17:07:29.471Z,99535.68
2019-04-26T17:10:32.985Z,99536.02
2019-04-26T17:13:48.242Z,99540.55
2019-04-26T17:16:42.404Z,99557.41
2019-04-26T17:19:47.438Z,99575.11
2019-04-26T17:23:16.716Z,99583.80
2019-04-26T17:26:36.393Z,99583.80
2019-04-26T17:29:43.224Z,99590.80
2019-04-26T17:32:47.569Z,99632.25
2019-04-26T17:35:52.811Z,99656.63
2019-04-26T17:38:56.286Z,99669.17
2019-04-26T17:42:01.175Z,99663.64
2019-04-26T17:45:07.022Z,99651.59
2019-04-26T17:48:12.845Z,99631.53
2019-04-26T17:51:18.939Z,99625.52
2019-04-26T17:54:40.938Z,99634.52
2019-04-26T17:57:36.056Z,99648.86
2019-04-26T18:00:45.561Z,99659.22
2019-04-26T18:03:37.674Z,99666.91
2019-04-26T18:06:45.357Z,99693.28
2019-04-26T18:09:46.956Z,99710.33
2019-04-26T18:12:50.862Z,99717.64
2019-04-26T18:15:54.544Z,99712.66
2019-04-26T18:19:15.969Z,99695.59
2019-04-26T18:22:36.171Z,99686.87
2019-04-26T18:25:41.320Z,99692.22
2019-04-26T18:28:51.761Z,99708.56
2019-04-26T18:31:51.404Z,99745.02
2019-04-26T18:34:55.005Z,99767.03
2019-04-26T18:37:58.423Z,99775.05
2019-04-26T18:41:03.618Z,99728.27
2019-04-26T18:44:07.356Z,99707.19
2019-04-26T18:47:27.549Z,99757.34
2019-04-26T18:50:32.765Z,99790.77
2019-04-26T18:54:00.511Z,99810.11
2019-04-26T18:57:04.997Z,99803.09
2019-04-26T19:00:14.306Z,99802.75
2019-04-26T19:03:17.520Z,99798.74
2019-04-26T19:06:31.011Z,99792.88
2019-04-26T19:09:27.581Z,99807.73
2019-04-26T19:12:32.633Z,99824.14
2019-04-26T19:15:52.545Z,99844.67
2019-04-26T19:18:59.922Z,99861.70
2019-04-26T19:22:04.343Z,99862.19
2019-04-26T19:25:18.972Z,99860.52
2019-04-26T19:28:13.175Z,99867.34
2019-04-26T19:31:19.312Z,99870.21
2019-04-26T19:34:25.809Z,99873.03
2019-04-26T19:37:30.433Z,99864.16
2019-04-26T19:40:33.531Z,99873.33
2019-04-26T19:43:39.207Z,99887.20
2019-04-26T19:47:19.917Z,99903.88
2019-04-26T19:50:34.475Z,99920.24
2019-04-26T19:53:54.179Z,99942.14
2019-04-26T19:57:11.128Z,99963.53
2019-04-26T20:00:14.615Z,99980.38
2019-04-26T20:03:18.030Z,99987.35
2019-04-26T20:06:21.625Z,99990.73
2019-04-26T20:09:26.570Z,99976.03
2019-04-26T20:12:35.461Z,99975.70
2019-04-26T20:15:35.392Z,99973.98
2019-04-26T20:18:39.948Z,99998.05
2019-04-26T20:21:45.414Z,100011.41
2019-04-26T20:24:53.057Z,100011.35
2019-04-26T20:27:59.804Z,100019.74
2019-04-26T20:31:09.531Z,100009.39
2019-04-26T20:34:16.678Z,99998.36
2019-04-26T20:37:22.854Z,99983.30
2019-04-26T20:40:25.523Z,99983.30
2019-04-26T20:43:29.645Z,100009.05
2019-04-26T20:46:37.614Z,100030.44
2019-04-26T20:49:48.167Z,100039.41
2019-04-26T20:52:45.529Z,100038.45
2019-04-26T20:55:49.179Z,100035.78
2019-04-26T20:58:52.736Z,100019.89
2019-04-26T21:02:03.949Z,100014.69
2019-04-26T21:05:02.109Z,100015.02
2019-04-26T21:08:07.348Z,100020.85
2019-04-26T21:11:11.508Z,100030.86
2019-04-26T21:14:15.983Z,100048.43
2019-04-26T21:17:23.650Z,100056.45
2019-04-26T21:20:27.606Z,100051.58
2019-04-26T21:23:35.083Z,100052.09
2019-04-26T21:26:46.702Z,100053.77
2019-04-26T21:30:07.842Z,100052.09
2019-04-26T21:33:19.096Z,100049.42
2019-04-26T21:36:41.199Z,100054.40
2019-04-26T21:40:16.931Z,100055.73
2019-04-26T21:43:20.008Z,100044.36
2019-04-26T21:46:23.437Z,100050.05
2019-04-26T21:49:26.858Z,100044.22
2019-04-26T21:52:30.285Z,100031.83
2019-04-26T21:55:38.379Z,100034.50
2019-04-26T21:58:38.979Z,100046.32
2019-04-26T22:01:43.524Z,100051.81
2019-04-26T22:04:47.177Z,100044.64
2019-04-26T22:07:50.722Z,100039.59
2019-04-26T22:10:54.647Z,100039.73
2019-04-26T22:14:03.213Z,100045.16
2019-04-26T22:17:36.526Z,100044.81
2019-04-26T22:20:44.809Z,100045.77
2019-04-26T22:24:03.680Z,100045.30
2019-04-26T22:27:07.470Z,100048.39
2019-04-26T22:30:16.689Z,100042.67
2019-04-26T22:33:20.494Z,100038.66
2019-04-26T22:36:27.332Z,100026.30
2019-04-26T22:39:32.550Z,100020.34
2019-04-26T22:42:41.532Z,100009.65
2019-04-26T22:45:49.054Z,100021.30
2019-04-26T22:49:01.080Z,100016.58
2019-04-26T22:51:58.192Z,100010.18
2019-04-26T22:55:03.979Z,100010.89
2019-04-26T22:58:07.399Z,100024.25
2019-04-26T23:01:11.278Z,100033.54
2019-04-26T23:04:17.882Z,100045.56
2019-04-26T23:07:23.253Z,100041.12
2019-04-26T23:10:31.135Z,100037.63
2019-04-26T23:13:41.293Z,100036.69
2019-04-26T23:17:04.180Z,100037.48
2019-04-26T23:20:13.099Z,100030.16
2019-04-26T23:23:16.773Z,100032.63
2019-04-26T23:26:20.381Z,100048.11
2019-04-26T23:29:24.022Z,100048.30
2019-04-26T23:32:27.461Z,100049.44
2019-04-26T23:35:30.965Z,100057.08
2019-04-26T23:38:37.351Z,100054.78
2019-04-26T23:41:41.604Z,100049.44
2019-04-26T23:44:45.994Z,100045.91
2019-04-26T23:47:49.481Z,100045.85
2019-04-26T23:50:53.872Z,100044.31
2019-04-26T23:53:57.891Z,100041.64
2019-04-26T23:57:02.958Z,100041.47
